x

South Brooks (46132) Wave Buoy

2:00 - Mon 21st Aug 2017 All times are PDT. -7 hours from GMT.

  • Sig Wave height 4.9ft
  • Peak Period 10s
  • Wind
    2mph, 4mph gusts
  • Sea Temp 61°f
  • Air Temp 60°f
  • Sea Pressure 1021mb
  • South Brooks
  • South Brooks

More Historic Weather Station data

Upgrade to MSW Pro to gain access to the past 30 days of data for over 8000 Wavebouys and Weather Stations around the globe.

Join

Comparision Forecast

View Surf forecast
   
lun. 08/21 2:00 5ft 10s 2 4 mph 1021mb 61f 60f
1:00 4.5ft 8s 2 4 mph 1021mb 61f 60f
12:00 4.5ft 9s 2 2 mph 1021.1mb 61f 60f
dim. 08/20 11:00 5ft 8s 4 4 mph 1021mb 61f 60f
10:00 5ft 8s 4 4 mph 1020.9mb 61f 60f
9:00 5ft 8s 2 4 mph 1021.2mb 61f 61f
8:00 5.5ft 8s 2 4 mph 1020.8mb 61f 61f
7:00 5.5ft 8s 2 2 mph 1020.8mb 61f 61f
6:00 5.5ft 8s 4 4 mph 1020.9mb 61f 62f
5:00 5ft 8s 2 4 mph 1021.4mb 61f 62f
4:00 5ft 16s 4 7 mph 1021.3mb 61f 62f
3:00 5.5ft 10s 4 7 mph 1021.2mb 61f 62f
2:00 5ft 10s 4 7 mph 1021.2mb 61f 61f
1:00 5ft 10s 4 7 mph 1021.2mb 60f 61f
12:00 5ft 16s 9 9 mph 1021mb 60f 61f
11:00 5ft 10s 9 11 mph 1021mb 60f 61f
10:00 5ft 10s 9 11 mph 1021.1mb 60f 60f
9:00 5ft 10s 9 11 mph 1021.2mb 60f 60f
8:00 5ft 10s 7 9 mph 1021.3mb 60f 60f
7:00 5ft 10s 4 7 mph 1021.3mb 60f 61f
6:00 5ft 8s 7 9 mph 1021.5mb 60f 61f
5:00 5ft 10s 11 13 mph 1021.4mb 60f 61f
4:00 5ft 10s 4 4 mph 1021.6mb 60f 61f
3:00 5ft 10s 4 4 mph 1021.7mb 60f 61f
2:00 5ft 10s 7 9 mph 1022mb 60f 61f
1:00 5ft 10s 11 13 mph 1022.2mb 60f 62f
12:00 4.5ft 10s 7 11 mph 1022.3mb 60f 60f
sam. 08/19 11:00 4.5ft 8s 7 7 mph 1022.6mb 60f 58f
10:00 5ft 10s 4 9 mph 1023mb 60f 58f
9:00 5.5ft 10s 4 7 mph 1023.4mb 60f 59f
8:00 5.5ft 10s 9 11 mph 1023.5mb 60f 60f
7:00 5.5ft 10s 7 9 mph 1023.9mb 60f 60f
6:00 5.5ft 9s 9 11 mph 1024.2mb 60f 60f
5:00 5.5ft 10s 11 13 mph 1024.5mb 60f 60f
4:00 5.5ft 9s 11 13 mph 1024.7mb 60f 60f
3:00 5ft 10s 11 13 mph 1024.9mb 60f 60f
2:00 6ft 10s 11 13 mph 1025.2mb 60f 60f
1:00 5.5ft 9s 11 13 mph 1025mb 60f 59f
12:00 5.5ft 9s 11 13 mph 1024.9mb 60f 59f
11:00 5ft 8s 13 13 mph 1024.7mb 60f 59f
10:00 5ft 8s 13 16 mph 1024.6mb 60f 59f
9:00 5ft 10s 13 16 mph 1024.5mb 60f 59f
8:00 6ft 9s 13 13 mph 1024.5mb 60f 58f
7:00 5.5ft 9s 11 13 mph 1024.2mb 59f 58f
6:00 5.5ft 8s 13 16 mph 1024.1mb 59f 58f
5:00 5.5ft 8s 13 16 mph 1023.9mb 59f 59f
4:00 5.5ft 8s 13 16 mph 1024.1mb 59f 59f
3:00 5.5ft 9s 9 11 mph 1024.2mb 59f 58f
2:00 6ft 8s 9 11 mph 1024mb 59f 59f
1:00 5.5ft 9s 7 9 mph 1024.1mb 59f 59f
12:00 5.5ft 8s 9 11 mph 1024mb 59f 59f
ven. 08/18 11:00 5.5ft 8s 11 13 mph 1023.9mb 60f 59f
10:00 6ft 8s 13 16 mph 1023.8mb 60f 60f
9:00 6ft 8s 13 18 mph 1023.8mb 60f 60f
8:00 6ft 9s 13 18 mph 1023.5mb 60f 60f
7:00 5.5ft 9s 16 18 mph 1023.6mb 59f 60f
6:00 5.5ft 8s 16 18 mph 1023.7mb 59f 60f
5:00 6ft 8s 16 20 mph 1023.6mb 59f 60f
4:00 6ft 10s 18 20 mph 1023.7mb 59f 60f
3:00 6ft 10s 16 20 mph 1023.7mb 59f 59f
2:00 6ft 10s 16 18 mph 1023.3mb 59f 59f
1:00 6ft 8s 16 18 mph 1022.9mb 59f 59f
12:00 6.5ft 8s 16 20 mph 1022.5mb 59f 59f
11:00 6ft 9s 16 18 mph 1022.2mb 59f 59f
10:00 6ft 11s 11 13 mph 1021.5mb 59f 60f
9:00 6ft 9s 11 13 mph 1021.2mb 58f 60f
8:00 7ft 8s 9 13 mph 1020.9mb 59f 60f
7:00 7ft 8s 7 9 mph 1020.7mb 59f 61f
6:00 7ft 11s 7 9 mph 1020.3mb 59f 61f
5:00 7ft 10s 9 11 mph 1020.2mb 59f 61f
4:00 7ft 9s 9 11 mph 1020.1mb 59f 61f
3:00 6ft 11s 13 20 mph 1020.1mb 59f 61f
2:00 6ft 11s 13 16 mph 1020.1mb 59f 61f
1:00 5.5ft 10s 13 16 mph 1020.4mb 60f 60f
12:00 6ft 12s 11 13 mph 1020.5mb 59f 60f
jeu. 08/17 11:00 5.5ft 10s 11 13 mph 1020.8mb 60f 61f
10:00 5.5ft 11s 9 11 mph 1020.9mb 60f 60f
9:00 5.5ft 10s 13 16 mph 1021.2mb 59f 60f
8:00 5.5ft 11s 13 16 mph 1021.4mb 59f 59f
7:00 6ft 11s 13 16 mph 1021.9mb 60f 59f
6:00 6ft 11s 13 16 mph 1022.3mb 59f 59f
5:00 6ft 11s 11 13 mph 1022.5mb 60f 60f
4:00 6ft 11s 13 16 mph 1022.9mb 60f 60f
3:00 6ft 11s 11 16 mph 1023.2mb 60f 61f
2:00 6ft 11s 7 9 mph 1023.2mb 60f 60f
1:00 6.5ft 12s 9 9 mph 1023.1mb 60f 60f
12:00 7ft 11s 4 7 mph 1023.1mb 59f 60f
11:00 6.5ft 12s 7 9 mph 1022.8mb 60f 60f